createdAt,value
2019-03-10T00:01:29.119Z,99900.31
2019-03-10T00:06:32.922Z,99889.00
2019-03-10T00:11:36.755Z,99882.66
2019-03-10T00:16:40.538Z,99882.66
2019-03-10T00:21:44.357Z,99895.95
2019-03-10T00:26:48.149Z,99895.95
2019-03-10T00:31:52.095Z,99904.84
2019-03-10T00:36:55.938Z,99909.37
2019-03-10T00:42:37.031Z,99923.48
2019-03-10T00:48:05.032Z,99929.42
2019-03-10T00:53:08.814Z,99929.42
2019-03-10T00:58:12.587Z,99906.48
2019-03-10T01:03:16.367Z,99912.97
2019-03-10T01:08:20.134Z,99910.50
2019-03-10T01:13:24.235Z,99910.50
2019-03-10T01:18:27.996Z,99914.44
2019-03-10T01:23:31.786Z,99890.16
2019-03-10T01:28:35.623Z,99878.08
2019-03-10T01:34:10.880Z,99876.52
2019-03-10T01:39:14.720Z,99881.73
2019-03-10T01:44:18.497Z,99883.56
2019-03-10T01:49:22.314Z,99858.45
2019-03-10T01:54:26.151Z,99855.73
2019-03-10T01:59:30.122Z,99855.73
2019-03-10T02:04:33.888Z,99841.00
2019-03-10T02:09:37.637Z,99830.59
2019-03-10T02:14:41.559Z,99831.69
2019-03-10T02:19:45.355Z,99828.35
2019-03-10T02:24:49.167Z,99830.90
2019-03-10T02:29:53.125Z,99823.28
2019-03-10T02:34:56.909Z,99823.28
2019-03-10T02:40:00.735Z,99826.27
2019-03-10T02:45:04.687Z,99804.55
2019-03-10T02:50:09.120Z,99795.52
2019-03-10T02:55:12.899Z,99779.63
2019-03-10T03:00:16.692Z,99779.63
2019-03-10T03:05:20.471Z,99769.89
2019-03-10T03:10:24.250Z,99759.44
2019-03-10T03:15:28.040Z,99746.51
2019-03-10T03:20:31.848Z,99746.51
2019-03-10T03:25:35.863Z,99740.67
2019-03-10T03:30:39.642Z,99739.66
2019-03-10T03:36:02.650Z,99739.20
2019-03-10T03:41:09.818Z,99739.20
2019-03-10T03:46:13.617Z,99725.53
2019-03-10T03:51:17.400Z,99728.08
2019-03-10T03:56:21.199Z,99715.41
2019-03-10T04:01:47.140Z,99704.32
2019-03-10T04:06:50.946Z,99708.70
2019-03-10T04:11:54.751Z,99702.13
2019-03-10T04:16:58.704Z,99694.47
2019-03-10T04:22:02.668Z,99690.59
2019-03-10T04:27:06.506Z,99673.53
2019-03-10T04:32:10.287Z,99690.55
2019-03-10T04:37:14.210Z,99677.69
2019-03-10T04:42:17.995Z,99669.39
2019-03-10T04:47:21.788Z,99663.59
2019-03-10T04:52:25.595Z,99657.98
2019-03-10T04:57:29.361Z,99655.41
2019-03-10T05:02:33.222Z,99651.53
2019-03-10T05:07:37.093Z,99643.13
2019-03-10T05:12:40.905Z,99643.13
2019-03-10T05:17:44.677Z,99639.34
2019-03-10T05:22:48.578Z,99642.39
2019-03-10T05:27:52.365Z,99637.87
2019-03-10T05:32:56.149Z,99637.87
2019-03-10T05:37:59.937Z,99611.11
2019-03-10T05:43:03.727Z,99611.11
2019-03-10T05:48:07.534Z,99593.19
2019-03-10T05:53:11.352Z,99583.58
2019-03-10T05:58:15.144Z,99583.58
2019-03-10T06:03:19.006Z,99566.89
2019-03-10T06:08:22.886Z,99555.67
2019-03-10T06:13:26.690Z,99555.67
2019-03-10T06:18:30.517Z,99518.56
2019-03-10T06:23:34.385Z,99518.56
2019-03-10T06:28:38.223Z,99518.77
2019-03-10T06:33:42.083Z,99498.65
2019-03-10T06:38:45.865Z,99489.13
2019-03-10T06:43:49.674Z,99481.78
2019-03-10T06:48:53.468Z,99468.77
2019-03-10T06:53:57.299Z,99468.77
2019-03-10T06:59:01.091Z,99446.47
2019-03-10T07:04:04.873Z,99446.70
2019-03-10T07:09:08.654Z,99450.59
2019-03-10T07:14:12.430Z,99450.59
2019-03-10T07:19:16.248Z,99446.56
2019-03-10T07:24:20.065Z,99448.00
2019-03-10T07:29:51.944Z,99433.53
2019-03-10T07:35:13.420Z,99433.53
2019-03-10T07:40:42.132Z,99427.58
2019-03-10T07:46:03.506Z,99427.58
2019-03-10T07:51:44.554Z,99411.98
2019-03-10T07:57:06.962Z,99411.98
2019-03-10T08:02:28.615Z,99411.98
2019-03-10T08:07:47.729Z,99394.70
2019-03-10T08:13:16.202Z,99379.25
2019-03-10T08:18:39.156Z,99379.25
2019-03-10T08:23:52.221Z,99363.38
2019-03-10T08:29:09.932Z,99349.03
2019-03-10T08:34:31.286Z,99349.03
2019-03-10T08:39:50.114Z,99331.00
2019-03-10T08:45:28.125Z,99314.94
2019-03-10T08:50:40.055Z,99299.33
2019-03-10T08:55:53.624Z,99291.72
2019-03-10T09:01:19.036Z,99275.41
2019-03-10T09:06:39.621Z,99272.88
2019-03-10T09:12:08.784Z,99268.47
2019-03-10T09:17:30.408Z,99268.47
2019-03-10T09:22:52.055Z,99247.77
2019-03-10T09:28:33.426Z,99236.95
2019-03-10T09:33:52.673Z,99236.95
2019-03-10T09:39:15.423Z,99222.51
2019-03-10T09:44:41.304Z,99200.11
2019-03-10T09:50:04.177Z,99174.02
2019-03-10T09:55:31.589Z,99160.91
2019-03-10T10:00:41.494Z,99146.52
2019-03-10T10:05:50.512Z,99121.11
2019-03-10T10:11:22.470Z,99122.41
2019-03-10T10:16:44.802Z,99093.56
2019-03-10T10:22:07.627Z,99083.00
2019-03-10T10:33:09.793Z,99065.65
2019-03-10T10:38:42.990Z,99042.02
2019-03-10T10:44:30.956Z,99013.88
2019-03-10T10:50:02.682Z,99001.82
2019-03-10T10:55:18.588Z,99001.82
2019-03-10T11:00:29.777Z,98968.73
2019-03-10T11:05:47.653Z,98955.80
2019-03-10T11:11:09.163Z,98955.80
2019-03-10T11:16:28.250Z,98921.61
2019-03-10T11:21:38.426Z,98893.13
2019-03-10T11:26:58.855Z,98875.20
2019-03-10T11:32:21.601Z,98833.91
2019-03-10T11:37:43.302Z,98815.41
2019-03-10T11:43:24.467Z,98805.70
2019-03-10T11:48:47.918Z,98805.70
2019-03-10T11:54:03.667Z,98784.69
2019-03-10T11:59:21.017Z,98762.56
2019-03-10T12:04:43.814Z,98776.44
2019-03-10T12:09:48.008Z,98765.16
2019-03-10T12:14:52.272Z,98718.13
2019-03-10T12:19:56.224Z,98718.13
2019-03-10T12:25:00.386Z,98677.77
2019-03-10T12:30:05.368Z,98651.06
2019-03-10T12:35:09.523Z,98657.85
2019-03-10T12:40:13.813Z,98657.85
2019-03-10T12:45:17.839Z,98647.62
2019-03-10T12:50:21.779Z,98637.27
2019-03-10T12:55:25.845Z,98605.94
2019-03-10T13:00:29.933Z,98605.48
2019-03-10T13:05:33.897Z,98602.97
2019-03-10T13:10:37.971Z,98601.08
2019-03-10T13:15:42.005Z,98601.08
2019-03-10T13:20:46.770Z,98583.71
2019-03-10T13:25:50.719Z,98542.70
2019-03-10T13:30:54.731Z,98534.33
2019-03-10T13:35:58.753Z,98534.33
2019-03-10T13:41:02.803Z,98532.99
2019-03-10T13:46:06.894Z,98523.98
2019-03-10T13:51:10.756Z,98523.98
2019-03-10T13:56:14.700Z,98489.83
2019-03-10T14:01:18.663Z,98474.28
2019-03-10T14:06:22.677Z,98468.30
2019-03-10T14:11:26.606Z,98463.44
2019-03-10T14:16:30.646Z,98463.44
2019-03-10T14:21:34.561Z,98459.76
2019-03-10T14:26:38.444Z,98455.51
2019-03-10T14:31:42.332Z,98459.90
2019-03-10T14:36:46.134Z,98465.40
2019-03-10T14:41:54.429Z,98465.40
2019-03-10T14:46:55.773Z,98458.86
2019-03-10T14:51:59.713Z,98411.74
2019-03-10T14:57:29.283Z,98422.87
2019-03-10T15:02:33.051Z,98422.87
2019-03-10T15:07:36.844Z,98410.13
2019-03-10T15:12:40.752Z,98391.53
2019-03-10T15:17:44.559Z,98394.20
2019-03-10T15:22:48.401Z,98394.20
2019-03-10T15:27:52.280Z,98379.30
2019-03-10T15:32:56.048Z,98373.25
2019-03-10T15:37:59.894Z,98376.94
2019-03-10T15:43:03.684Z,98369.72
2019-03-10T15:48:07.511Z,98383.97
2019-03-10T15:53:11.361Z,98397.55
2019-03-10T15:58:15.171Z,98396.20
2019-03-10T16:03:19.038Z,98382.47
2019-03-10T16:08:22.819Z,98380.78
2019-03-10T16:13:26.636Z,98390.00
2019-03-10T16:18:30.425Z,98389.17
2019-03-10T16:23:34.292Z,98381.45
2019-03-10T16:28:38.243Z,98399.73
2019-03-10T16:33:42.157Z,98384.65
2019-03-10T16:38:46.060Z,98390.19
2019-03-10T16:43:49.987Z,98405.24
2019-03-10T16:48:53.859Z,98402.06
2019-03-10T16:53:57.745Z,98416.84
2019-03-10T16:59:02.263Z,98423.37
2019-03-10T17:04:06.066Z,98423.37
2019-03-10T17:09:17.930Z,98427.41
2019-03-10T17:14:22.213Z,98439.27
2019-03-10T17:19:26.306Z,98439.27
2019-03-10T17:24:30.334Z,98449.25
2019-03-10T17:29:34.342Z,98430.97
2019-03-10T17:34:39.669Z,98468.90
2019-03-10T17:39:43.626Z,98468.90
2019-03-10T17:44:47.433Z,98506.85
2019-03-10T17:49:51.314Z,98501.30
2019-03-10T17:54:55.123Z,98493.41
2019-03-10T17:59:59.054Z,98487.02
2019-03-10T18:05:03.110Z,98491.05
2019-03-10T18:10:07.599Z,98491.05
2019-03-10T18:15:11.596Z,98508.33
2019-03-10T18:20:15.410Z,98530.00
2019-03-10T18:25:19.240Z,98530.00
2019-03-10T18:30:23.113Z,98525.11
2019-03-10T18:35:26.890Z,98538.08
2019-03-10T18:40:30.698Z,98538.08
2019-03-10T18:45:34.536Z,98552.84
2019-03-10T18:50:38.342Z,98552.84
2019-03-10T18:55:42.177Z,98559.56
2019-03-10T19:00:46.030Z,98559.56
2019-03-10T19:05:49.952Z,98575.84
2019-03-10T19:10:53.759Z,98575.84
2019-03-10T19:15:57.658Z,98591.14
2019-03-10T19:21:01.559Z,98593.33
2019-03-10T19:26:05.430Z,98615.00
2019-03-10T19:31:09.350Z,98615.00
2019-03-10T19:36:13.153Z,98621.70
2019-03-10T19:41:16.971Z,98637.52
2019-03-10T19:46:20.793Z,98632.62
2019-03-10T19:51:24.612Z,98638.86
2019-03-10T19:56:28.419Z,98661.69
2019-03-10T20:01:32.435Z,98685.36
2019-03-10T20:06:36.307Z,98685.36
2019-03-10T20:11:40.178Z,98817.08
2019-03-10T20:16:44.120Z,98918.71
2019-03-10T20:21:48.049Z,98918.71
2019-03-10T20:26:51.938Z,99063.07
2019-03-10T20:31:55.773Z,99063.07
2019-03-10T20:36:59.641Z,99119.25
2019-03-10T20:42:05.443Z,99224.22
2019-03-10T20:47:09.067Z,99274.93
2019-03-10T20:52:12.882Z,99294.11
2019-03-10T20:57:16.709Z,99331.03
2019-03-10T21:02:20.663Z,99331.03
2019-03-10T21:07:24.659Z,99411.66
2019-03-10T21:12:39.474Z,99411.66
2019-03-10T21:17:34.297Z,99460.08
2019-03-10T21:22:38.283Z,99472.32
2019-03-10T21:27:42.255Z,99498.59
2019-03-10T21:32:46.360Z,99533.52
2019-03-10T21:37:50.332Z,99533.52
2019-03-10T21:42:54.387Z,99555.94
2019-03-10T21:47:58.474Z,99555.94
2019-03-10T21:53:02.613Z,99589.38
2019-03-10T21:58:06.635Z,99603.54
2019-03-10T22:03:10.664Z,99612.94
2019-03-10T22:08:14.827Z,99612.94
2019-03-10T22:13:18.761Z,99638.99
2019-03-10T22:18:23.163Z,99638.99
2019-03-10T22:23:27.119Z,99635.60
2019-03-10T22:28:31.001Z,99649.07
2019-03-10T22:33:35.075Z,99669.45
2019-03-10T22:38:39.028Z,99669.45
2019-03-10T22:43:42.938Z,99680.80
2019-03-10T22:48:46.967Z,99697.19
2019-03-10T22:53:51.028Z,99700.02
2019-03-10T22:58:55.071Z,99695.25
2019-03-10T23:03:59.108Z,99695.25
2019-03-10T23:09:03.157Z,99717.50
2019-03-10T23:14:08.134Z,99717.50
2019-03-10T23:19:12.118Z,99725.94
2019-03-10T23:24:16.240Z,99729.55
2019-03-10T23:29:20.173Z,99740.10
2019-03-10T23:34:24.256Z,99747.84
2019-03-10T23:39:28.328Z,99757.09
2019-03-10T23:44:32.254Z,99757.09
2019-03-10T23:49:36.164Z,99755.97
2019-03-10T23:54:40.150Z,99767.20
2019-03-10T23:59:43.997Z,99783.06
